Time;durP1;ratioP1;P1;durP2;ratioP2;P2;SDS_P1;SDS_P2;PMS_P1;PMS_P2;Temp;Humidity;BMP_temperature;BMP_pressure;BME280_temperature;BME280_humidity;BME280_pressure;Samples;Min_cycle;Max_cycle;Signal;HPM_P1;HPM_P2
2023/06/15 00:00:22;;;;;;;0.88;0.60;;;;;;;17.30;100.00;97538.16;5111597;28;20077;-75
2023/06/15 00:02:47;;;;;;;0.40;0.40;;;;;;;17.30;100.00;97532.75;5093473;28;20027;-75
2023/06/15 00:05:13;;;;;;;0.28;0.28;;;;;;;17.29;100.00;97541.84;5093457;28;20027;-75
2023/06/15 00:07:38;;;;;;;0.30;0.30;;;;;;;17.30;100.00;97540.00;5093345;28;20020;-75
2023/06/15 00:10:05;;;;;;;0.50;0.50;;;;;;;17.39;100.00;97550.00;5111558;28;20019;-75
2023/06/15 00:12:31;;;;;;;0.15;0.15;;;;;;;17.36;100.00;97550.25;5093457;28;20068;-73
2023/06/15 00:14:57;;;;;;;0.30;0.30;;;;;;;17.32;100.00;97538.00;5093305;28;20023;-75
2023/06/15 00:17:23;;;;;;;0.85;0.55;;;;;;;17.38;100.00;97542.03;5093272;28;20410;-76
2023/06/15 00:19:48;;;;;;;2.40;0.82;;;;;;;17.37;100.00;97538.47;5093163;28;20111;-76
2023/06/15 00:22:17;;;;;;;2.35;0.85;;;;;;;17.40;100.00;97546.31;5076657;28;20016;-76
2023/06/15 00:24:43;;;;;;;3.78;1.48;;;;;;;17.46;100.00;97553.88;5111328;28;20034;-77
2023/06/15 00:27:10;;;;;;;0.95;0.50;;;;;;;17.48;100.00;97556.41;5093103;28;20024;-76
2023/06/15 00:29:36;;;;;;;0.47;0.47;;;;;;;17.46;100.00;97548.47;5111258;28;20034;-75
2023/06/15 00:32:04;;;;;;;0.52;0.45;;;;;;;17.42;100.00;97549.72;5111555;28;20027;-74
2023/06/15 00:34:29;;;;;;;0.50;0.47;;;;;;;17.45;100.00;97544.03;5076043;28;20098;-74
2023/06/15 00:36:55;;;;;;;4.22;0.73;;;;;;;17.44;100.00;97545.03;5111184;28;20471;-74
2023/06/15 00:39:20;;;;;;;0.90;0.82;;;;;;;17.42;100.00;97541.59;5111526;28;20398;-75
2023/06/15 00:41:46;;;;;;;6.82;0.47;;;;;;;17.45;100.00;97544.03;5092779;28;20047;-75
2023/06/15 00:44:11;;;;;;;1.17;0.95;;;;;;;17.46;100.00;97537.63;5126131;27;20069;-74
2023/06/15 00:46:38;;;;;;;0.70;0.55;;;;;;;17.46;100.00;97534.94;5113642;28;20027;-75
2023/06/15 00:49:03;;;;;;;0.52;0.47;;;;;;;17.44;100.00;97533.38;5113795;28;20072;-74
2023/06/15 00:51:29;;;;;;;1.13;0.80;;;;;;;17.51;100.00;97538.06;5096353;28;20039;-74
2023/06/15 00:53:55;;;;;;;0.55;0.55;;;;;;;17.48;100.00;97534.78;5113330;28;20459;-74
2023/06/15 00:56:20;;;;;;;1.05;0.68;;;;;;;17.50;100.00;97535.53;5113526;28;20033;-74
2023/06/15 00:58:47;;;;;;;0.20;0.20;;;;;;;17.49;100.00;97531.94;5113385;28;20019;-75
2023/06/15 01:01:13;;;;;;;0.35;0.35;;;;;;;17.45;100.00;97525.09;5113081;28;20019;-75
2023/06/15 01:03:40;;;;;;;1.38;0.80;;;;;;;17.48;100.00;97530.22;5113486;28;20034;-76
2023/06/15 01:06:13;;;;;;;0.20;0.20;;;;;;;17.49;100.00;97531.94;5095141;28;20111;-76
2023/06/15 01:08:47;;;;;;;0.85;0.60;;;;;;;17.42;100.00;97533.50;5094028;28;20041;-74
2023/06/15 01:11:14;;;;;;;0.30;0.28;;;;;;;17.46;100.00;97534.94;5093152;28;20027;-75
2023/06/15 01:13:41;;;;;;;0.63;0.63;;;;;;;17.43;100.00;97529.81;5093028;28;20092;-75
2023/06/15 01:16:11;;;;;;;1.13;0.43;;;;;;;17.41;100.00;97531.75;5093075;28;20024;-75
2023/06/15 01:18:41;;;;;;;18.85;0.80;;;;;;;17.38;100.00;97534.75;5092782;28;20024;-75
2023/06/15 01:21:07;;;;;;;0.75;0.73;;;;;;;17.37;100.00;97533.06;5093513;28;20399;-75
2023/06/15 01:23:43;;;;;;;8.77;1.58;;;;;;;17.34;100.00;97522.50;5095079;28;20036;-75
2023/06/15 01:26:13;;;;;;;1.33;1.05;;;;;;;17.31;100.00;97526.34;5096274;28;20402;-75
2023/06/15 01:28:47;;;;;;;3.42;1.33;;;;;;;17.37;100.00;97530.34;5113132;28;20106;-75
2023/06/15 01:31:13;;;;;;;0.30;0.30;;;;;;;17.40;100.00;97527.38;5113268;28;20011;-75
2023/06/15 01:33:49;;;;;;;0.85;0.77;;;;;;;17.40;100.00;97530.06;5112976;28;20046;-75
2023/06/15 01:36:15;;;;;;;1.80;0.40;;;;;;;17.35;100.00;97529.63;5112951;28;20024;-74
2023/06/15 01:38:41;;;;;;;0.90;0.68;;;;;;;17.36;100.00;97523.22;5112925;28;20027;-75
2023/06/15 01:41:07;;;;;;;2.35;1.23;;;;;;;17.33;100.00;97521.66;5106395;28;20024;-75
2023/06/15 01:43:34;;;;;;;1.77;0.60;;;;;;;17.30;100.00;97521.06;5110635;28;20115;-75
2023/06/15 01:46:00;;;;;;;1.23;1.13;;;;;;;17.35;100.00;97524.19;5075755;28;20019;-74
2023/06/15 01:48:27;;;;;;;1.92;0.73;;;;;;;17.38;100.00;97528.50;5110952;28;20027;-75
2023/06/15 01:50:53;;;;;;;0.57;0.32;;;;;;;17.24;100.00;97511.66;5096377;28;20114;-74
2023/06/15 01:53:18;;;;;;;0.40;0.40;;;;;;;17.24;100.00;97516.22;5114577;28;20093;-74
2023/06/15 01:55:44;;;;;;;0.55;0.55;;;;;;;17.25;100.00;97510.69;5114205;28;20486;-74
2023/06/15 01:58:16;;;;;;;0.52;0.52;;;;;;;17.29;100.00;97522.91;5096362;28;20019;-74
2023/06/15 02:00:46;;;;;;;0.30;0.30;;;;;;;17.21;100.00;97513.78;5096524;28;20165;-75
2023/06/15 02:03:12;;;;;;;3.75;1.30;;;;;;;17.23;100.00;97523.47;5096170;28;20444;-74
2023/06/15 02:05:41;;;;;;;1.40;0.60;;;;;;;17.24;100.00;97522.47;5096038;28;20491;-75
2023/06/15 02:08:10;;;;;;;0.45;0.45;;;;;;;17.29;100.00;97524.75;5096325;28;20076;-75
2023/06/15 02:10:36;;;;;;;0.40;0.40;;;;;;;17.26;100.00;97519.63;5095754;28;20115;-74
2023/06/15 02:13:02;;;;;;;0.85;0.80;;;;;;;17.25;100.00;97513.38;5078721;28;20406;-74
2023/06/15 02:15:28;;;;;;;0.32;0.32;;;;;;;17.25;100.00;97512.53;5112407;27;20026;-74
2023/06/15 02:17:59;;;;;;;0.47;0.47;;;;;;;17.23;100.00;97519.91;5098985;27;20474;-74
2023/06/15 02:20:25;;;;;;;0.68;0.68;;;;;;;17.25;100.00;97526.03;5115936;27;20039;-74
2023/06/15 02:22:52;;;;;;;17.88;1.50;;;;;;;17.24;100.00;97516.22;5115807;27;20019;-74
2023/06/15 02:25:18;;;;;;;0.40;0.40;;;;;;;17.27;100.00;97518.63;5116141;27;20038;-74
2023/06/15 02:27:44;;;;;;;0.47;0.47;;;;;;;17.24;100.00;97513.50;5134279;27;20031;-74
2023/06/15 02:30:11;;;;;;;0.80;0.63;;;;;;;17.24;100.00;97517.06;5115840;27;20031;-74
2023/06/15 02:32:39;;;;;;;0.50;0.47;;;;;;;17.25;100.00;97509.81;5098665;27;20088;-74
2023/06/15 02:35:08;;;;;;;1.38;0.68;;;;;;;17.27;100.00;97510.53;5134098;27;20499;-74
2023/06/15 02:37:34;;;;;;;1.35;1.15;;;;;;;17.24;100.00;97500.00;5134134;27;20505;-74
2023/06/15 02:39:59;;;;;;;0.30;0.30;;;;;;;17.31;100.00;97506.56;5098521;27;20566;-74
2023/06/15 02:42:25;;;;;;;1.30;1.20;;;;;;;17.33;100.00;97513.53;5115404;27;20019;-74
2023/06/15 02:44:51;;;;;;;2.28;0.85;;;;;;;17.33;100.00;97499.16;5115439;27;20046;-74
2023/06/15 02:47:16;;;;;;;0.10;0.10;;;;;;;17.22;100.00;97494.72;5115299;27;20500;-74
2023/06/15 02:49:42;;;;;;;0.50;0.50;;;;;;;17.23;100.00;97492.84;5098491;27;20420;-74
2023/06/15 02:52:08;;;;;;;1.65;0.85;;;;;;;17.27;100.00;97489.75;5133333;27;20039;-74
2023/06/15 02:54:36;;;;;;;6.55;0.90;;;;;;;17.31;100.00;97503.88;5115365;27;20168;-74
2023/06/15 02:57:06;;;;;;;1.20;0.80;;;;;;;17.31;100.00;97509.28;5133396;27;20035;-74
2023/06/15 02:59:33;;;;;;;0.85;0.82;;;;;;;17.34;100.00;97511.69;5098451;27;20031;-74
2023/06/15 03:02:00;;;;;;;0.15;0.15;;;;;;;17.32;100.00;97505.56;5115126;27;20019;-74
2023/06/15 03:04:27;;;;;;;0.35;0.35;;;;;;;17.27;100.00;97514.09;5098181;27;20027;-74
2023/06/15 03:06:56;;;;;;;0.82;0.82;;;;;;;17.33;100.00;97499.16;5114805;27;20454;-74
2023/06/15 03:09:22;;;;;;;1.60;1.42;;;;;;;17.32;100.00;97503.72;5098295;27;20504;-74
2023/06/15 03:11:47;;;;;;;0.73;0.70;;;;;;;17.34;100.00;97511.69;5115081;27;20062;-74
2023/06/15 03:14:13;;;;;;;1.55;1.08;;;;;;;17.32;100.00;97511.81;5097639;27;20046;-75
2023/06/15 03:16:39;;;;;;;0.85;0.85;;;;;;;17.35;100.00;97513.38;5133252;27;20105;-75
2023/06/15 03:19:05;;;;;;;1.40;1.13;;;;;;;17.35;100.00;97503.44;5114752;27;20046;-74
2023/06/15 03:21:31;;;;;;;0.40;0.40;;;;;;;17.41;100.00;97504.72;5114849;27;20023;-74
2023/06/15 03:23:57;;;;;;;2.08;1.23;;;;;;;17.43;100.00;97499.19;5133111;27;20043;-74
2023/06/15 03:26:23;;;;;;;12.68;5.20;;;;;;;17.35;100.00;97499.88;5097632;27;20033;-74
2023/06/15 03:28:49;;;;;;;1.58;1.42;;;;;;;17.36;100.00;97501.59;5133072;27;20088;-73
2023/06/15 03:31:18;;;;;;;0.43;0.40;;;;;;;17.39;100.00;97500.44;5114385;27;20015;-74
2023/06/15 03:33:48;;;;;;;1.02;0.60;;;;;;;17.34;100.00;97490.06;5097933;27;20034;-75
2023/06/15 03:36:13;;;;;;;2.95;1.60;;;;;;;17.31;100.00;97491.19;5103525;28;20030;-74
2023/06/15 03:38:42;;;;;;;1.10;1.05;;;;;;;17.31;100.00;97491.19;5082970;27;20031;-75
2023/06/15 03:41:08;;;;;;;1.30;1.10;;;;;;;17.31;100.00;97495.75;5113590;27;20386;-76
2023/06/15 03:43:35;;;;;;;5.03;1.42;;;;;;;17.41;100.00;97506.59;5077104;28;20039;-77
2023/06/15 03:46:01;;;;;;;11.43;6.15;;;;;;;17.38;100.00;97502.28;5112107;28;20021;-77
2023/06/15 03:48:26;;;;;;;4.20;1.75;;;;;;;17.39;100.00;97500.44;5093873;28;20114;-77
2023/06/15 03:50:51;;;;;;;2.78;1.00;;;;;;;17.38;100.00;97496.06;5111880;28;20038;-77
2023/06/15 03:53:17;;;;;;;0.45;0.45;;;;;;;17.39;100.00;97503.16;5112002;28;20023;-78
2023/06/15 03:55:42;;;;;;;19.27;7.97;;;;;;;17.40;100.00;97497.63;5093752;28;20023;-78
2023/06/15 03:58:11;;;;;;;12.60;4.72;;;;;;;17.34;100.00;97490.06;5118766;27;20033;-78
2023/06/15 04:00:36;;;;;;;16.75;9.38;;;;;;;17.49;100.00;97495.94;5114031;27;20023;-78
2023/06/15 04:03:02;;;;;;;1.73;1.63;;;;;;;17.49;100.00;97488.69;5091037;28;20046;-77
2023/06/15 04:05:27;;;;;;;0.95;0.90;;;;;;;17.46;100.00;97483.53;5093541;28;20023;-78
2023/06/15 04:07:59;;;;;;;0.30;0.30;;;;;;;17.45;100.00;97484.53;5104558;27;20104;-78
2023/06/15 04:10:25;;;;;;;2.42;1.05;;;;;;;17.48;100.00;97481.53;5077038;27;20497;-77
2023/06/15 04:12:51;;;;;;;2.75;1.55;;;;;;;17.51;100.00;97483.97;5113321;27;20030;-77
2023/06/15 04:15:16;;;;;;;0.85;0.55;;;;;;;17.60;100.00;97485.00;5132109;27;20379;-78
2023/06/15 04:17:42;;;;;;;1.25;0.70;;;;;;;17.57;100.00;97488.84;5096651;27;20042;-77
2023/06/15 04:20:12;;;;;;;1.88;1.13;;;;;;;17.67;100.00;97491.59;5131954;27;20027;-76
2023/06/15 04:22:38;;;;;;;0.80;0.70;;;;;;;17.72;100.00;97483.88;5118572;27;20027;-74
2023/06/15 04:25:04;;;;;;;2.85;1.58;;;;;;;17.79;100.00;97483.19;5111666;28;20031;-74
2023/06/15 04:27:31;;;;;;;5.63;2.75;;;;;;;17.89;100.00;97480.50;5092871;28;20031;-75
2023/06/15 04:29:57;;;;;;;14.13;6.57;;;;;;;17.90;100.00;97467.84;5093658;28;20028;-74
2023/06/15 04:32:25;;;;;;;1.00;1.00;;;;;;;17.94;100.00;97474.66;5076193;28;20497;-74
2023/06/15 04:34:54;;;;;;;1.40;1.00;;;;;;;17.97;100.00;97461.69;5076430;28;20059;-75
2023/06/15 04:37:20;;;;;;;13.20;5.47;;;;;;;18.03;100.00;97465.66;5093482;28;20099;-75
2023/06/15 04:39:46;;;;;;;11.98;6.32;;;;;;;18.08;100.00;97469.69;5111171;28;20053;-75
2023/06/15 04:42:12;;;;;;;2.47;1.70;;;;;;;18.08;100.00;97464.28;5092795;28;20019;-74
2023/06/15 04:44:38;;;;;;;1.10;1.00;;;;;;;18.15;100.00;97464.56;5110969;28;20032;-75
2023/06/15 04:47:04;;;;;;;0.45;0.45;;;;;;;18.25;100.00;97465.38;5093020;28;20027;-74
2023/06/15 04:49:31;;;;;;;1.75;1.05;;;;;;;18.34;100.00;97464.50;5092896;28;20088;-75
2023/06/15 04:51:57;;;;;;;0.55;0.55;;;;;;;18.43;100.00;97463.63;5092799;28;20452;-74
2023/06/15 04:54:22;;;;;;;0.30;0.30;;;;;;;18.92;100.00;97457.97;5075809;28;20031;-74
2023/06/15 04:56:48;;;;;;;0.57;0.57;;;;;;;19.03;100.00;97446.06;5092727;28;20045;-74
2023/06/15 04:59:13;;;;;;;2.67;1.30;;;;;;;19.41;100.00;97428.78;5092673;28;20406;-75
2023/06/15 05:01:39;;;;;;;2.38;0.90;;;;;;;19.61;100.00;97407.78;5104864;28;20106;-74
2023/06/15 05:04:05;;;;;;;1.08;0.93;;;;;;;19.67;100.00;97385.44;5125066;28;20453;-75
2023/06/15 05:06:30;;;;;;;3.28;1.15;;;;;;;19.55;100.00;97359.56;5131338;27;20030;-75
2023/06/15 05:08:56;;;;;;;0.60;0.57;;;;;;;20.02;100.00;97348.28;5113182;28;20354;-75
2023/06/15 05:11:21;;;;;;;0.50;0.47;;;;;;;20.03;100.00;97330.94;5127957;27;20022;-75
2023/06/15 05:13:47;;;;;;;1.10;0.82;;;;;;;19.90;100.00;97314.22;5092761;28;20400;-75
2023/06/15 05:16:12;;;;;;;0.35;0.35;;;;;;;19.84;100.00;97306.69;5110857;28;20098;-76
2023/06/15 05:18:38;;;;;;;0.43;0.43;;;;;;;20.11;100.00;97307.56;5092430;28;20482;-75
2023/06/15 05:21:04;;;;;;;0.45;0.45;;;;;;;20.44;100.00;97304.06;5092456;28;20478;-75
2023/06/15 05:23:30;;;;;;;0.52;0.52;;;;;;;20.60;100.00;97293.28;5092909;28;20411;-75
2023/06/15 05:25:55;;;;;;;0.20;0.20;;;;;;;20.62;100.00;97291.22;5128826;27;20023;-75
2023/06/15 05:28:21;;;;;;;1.02;0.57;;;;;;;20.49;100.00;97297.13;5116592;27;20019;-75
2023/06/15 05:30:46;;;;;;;0.80;0.40;;;;;;;20.40;100.00;97298.09;5116783;27;20545;-75
2023/06/15 05:33:12;;;;;;;1.42;0.60;;;;;;;20.65;100.00;97295.50;5135094;27;20019;-75
2023/06/15 05:35:37;;;;;;;0.50;0.50;;;;;;;20.86;100.00;97294.03;5116452;27;20030;-75
2023/06/15 05:38:03;;;;;;;0.20;0.20;;;;;;;20.83;100.00;97283.50;5116816;27;20550;-75
2023/06/15 05:40:28;;;;;;;0.43;0.40;;;;;;;20.85;100.00;97270.59;5134839;27;20023;-75
2023/06/15 05:42:54;;;;;;;0.20;0.20;;;;;;;20.74;100.00;97267.31;5135076;27;20015;-75
2023/06/15 05:45:20;;;;;;;1.83;0.80;;;;;;;20.91;100.00;97275.38;5116600;27;20030;-74
2023/06/15 05:47:45;;;;;;;0.93;0.82;;;;;;;21.32;100.00;97261.91;5116319;27;20020;-75
2023/06/15 05:50:11;;;;;;;0.68;0.68;;;;;;;21.70;100.00;97266.66;5098397;28;20027;-75
2023/06/15 05:52:37;;;;;;;0.40;0.40;;;;;;;22.05;100.00;97255.41;5095841;28;20077;-75
2023/06/15 05:55:02;;;;;;;0.15;0.15;;;;;;;22.44;100.00;97251.88;5096179;28;20470;-75
2023/06/15 05:57:28;;;;;;;0.63;0.63;;;;;;;22.51;100.00;97245.56;5114074;28;20068;-75
2023/06/15 05:59:53;;;;;;;0.40;0.40;;;;;;;22.48;100.00;97236.88;5078965;28;20092;-75
2023/06/15 06:02:19;;;;;;;0.55;0.47;;;;;;;22.55;100.00;97241.44;5114372;28;20023;-75
2023/06/15 06:04:44;;;;;;;0.80;0.52;;;;;;;22.36;100.00;97225.53;5095753;28;20096;-75
2023/06/15 06:07:10;;;;;;;0.43;0.43;;;;;;;22.27;100.00;97247.53;5095635;28;20509;-75
2023/06/15 06:09:38;;;;;;;1.67;0.45;;;;;;;22.18;100.00;97232.22;5095826;28;20051;-75
2023/06/15 06:12:05;;;;;;;1.35;0.47;;;;;;;22.46;100.00;97233.47;5078989;28;20111;-76
2023/06/15 06:14:30;;;;;;;0.73;0.60;;;;;;;22.42;100.00;97237.59;5095510;28;20474;-75
2023/06/15 06:16:56;;;;;;;2.55;1.52;;;;;;;22.54;100.00;97244.34;5078810;28;20029;-75
2023/06/15 06:19:22;;;;;;;3.13;1.33;;;;;;;22.60;100.00;97238.19;5095582;28;20022;-75
2023/06/15 06:21:48;;;;;;;1.35;1.02;;;;;;;22.66;100.00;97242.97;5116497;27;20023;-76
2023/06/15 06:24:14;;;;;;;0.50;0.32;;;;;;;22.58;100.00;97245.69;5098636;27;20119;-75
2023/06/15 06:26:40;;;;;;;0.95;0.95;;;;;;;22.46;100.00;97250.66;5134038;27;20019;-75
2023/06/15 06:29:05;;;;;;;1.13;0.90;;;;;;;22.43;100.00;97242.00;5111544;28;20475;-75
2023/06/15 06:31:31;;;;;;;0.57;0.57;;;;;;;22.36;100.00;97235.56;5113554;28;20008;-75
2023/06/15 06:33:56;;;;;;;0.47;0.38;;;;;;;22.09;100.00;97245.84;5095093;28;20020;-75
2023/06/15 06:36:22;;;;;;;0.60;0.40;;;;;;;22.01;100.00;97251.31;5094628;28;20023;-76
2023/06/15 06:38:47;;;;;;;1.75;0.93;;;;;;;22.09;100.00;97256.75;5095212;28;20030;-76
2023/06/15 06:41:14;;;;;;;0.57;0.52;;;;;;;22.35;100.00;97253.78;5095255;28;20403;-75
2023/06/15 06:43:39;;;;;;;2.25;0.63;;;;;;;22.34;100.00;97253.94;5113119;28;20543;-78
2023/06/15 06:46:05;;;;;;;0.77;0.70;;;;;;;22.38;100.00;97258.03;5099352;27;20098;-76
2023/06/15 06:48:30;;;;;;;0.73;0.60;;;;;;;22.66;100.00;97254.72;5079310;28;20038;-76
2023/06/15 06:50:56;;;;;;;0.50;0.50;;;;;;;22.61;100.00;97245.34;5094600;28;20024;-74
2023/06/15 06:53:21;;;;;;;1.48;0.75;;;;;;;22.42;100.00;97249.34;5094841;28;20636;-75
2023/06/15 06:55:48;;;;;;;1.15;0.45;;;;;;;22.57;100.00;97244.00;5112843;28;20023;-74
2023/06/15 06:58:14;;;;;;;0.40;0.40;;;;;;;22.99;100.00;97243.63;5113043;28;20024;-75
2023/06/15 07:00:39;;;;;;;0.63;0.57;;;;;;;23.19;100.00;97240.25;5121261;27;20066;-73
2023/06/15 07:03:05;;;;;;;0.22;0.22;;;;;;;23.20;100.00;97243.84;5115254;27;20058;-75
2023/06/15 07:05:31;;;;;;;1.70;0.70;;;;;;;23.27;100.00;97231.16;5133574;27;20494;-76
2023/06/15 07:07:56;;;;;;;1.35;0.55;;;;;;;23.44;100.00;97232.75;5133184;27;20101;-76
2023/06/15 07:10:22;;;;;;;0.30;0.30;;;;;;;23.38;100.00;97232.63;5088892;28;20031;-77
2023/06/15 07:12:47;;;;;;;1.60;1.08;;;;;;;23.19;100.00;97240.25;5112290;27;20374;-75
2023/06/15 07:15:13;;;;;;;1.50;0.90;;;;;;;23.22;100.00;97256.25;5115016;27;20027;-75
2023/06/15 07:17:39;;;;;;;1.75;0.73;;;;;;;23.38;100.00;97254.47;5086972;28;20051;-75
2023/06/15 07:20:05;;;;;;;1.35;0.75;;;;;;;23.14;100.00;97252.75;5094119;28;20080;-77
2023/06/15 07:22:31;;;;;;;0.73;0.40;;;;;;;22.99;100.00;97255.41;5077411;28;20023;-75
2023/06/15 07:24:56;;;;;;;0.55;0.40;;;;;;;22.95;100.00;97270.41;5094153;28;20125;-76
2023/06/15 07:27:22;;;;;;;0.45;0.45;;;;;;;22.86;100.00;97260.56;5112426;28;20027;-78
2023/06/15 07:29:48;;;;;;;0.93;0.55;;;;;;;23.17;100.00;97261.44;5114161;27;20023;-75
2023/06/15 07:32:14;;;;;;;0.50;0.47;;;;;;;23.44;100.00;97273.72;5114447;27;20438;-76
2023/06/15 07:34:40;;;;;;;0.40;0.40;;;;;;;23.68;100.00;97269.97;5098145;28;20490;-76
2023/06/15 07:37:06;;;;;;;0.30;0.30;;;;;;;23.83;100.00;97265.41;5093882;28;20052;-76
2023/06/15 07:39:31;;;;;;;0.43;0.30;;;;;;;23.72;100.00;97253.00;5086139;27;20046;-77
2023/06/15 07:41:57;;;;;;;0.60;0.60;;;;;;;23.86;100.00;97248.63;5096010;28;20016;-77
2023/06/15 07:44:23;;;;;;;0.43;0.43;;;;;;;23.88;100.00;97254.75;5081872;27;20027;-76
2023/06/15 07:46:48;;;;;;;1.45;1.23;;;;;;;23.85;100.00;97254.25;5102331;28;20548;-75
2023/06/15 07:49:14;;;;;;;0.77;0.77;;;;;;;23.06;100.00;97255.53;5111988;28;20110;-75
2023/06/15 07:51:40;;;;;;;3.30;1.45;;;;;;;22.76;100.00;97278.22;5093740;28;20035;-77
2023/06/15 07:54:05;;;;;;;1.23;0.70;;;;;;;23.21;100.00;97287.34;5076803;28;20463;-75
2023/06/15 07:56:31;;;;;;;1.75;0.75;;;;;;;23.46;100.00;97284.47;5102146;27;20015;-75
2023/06/15 07:58:59;;;;;;;1.15;0.90;;;;;;;23.37;100.00;97275.47;5113789;27;20106;-76
2023/06/15 08:01:25;;;;;;;1.35;0.88;;;;;;;23.25;100.00;97284.25;5132342;27;20454;-76
2023/06/15 08:03:53;;;;;;;0.85;0.63;;;;;;;23.15;100.00;97282.59;5124020;27;20039;-76
2023/06/15 08:06:18;;;;;;;0.22;0.22;;;;;;;23.48;100.00;97269.59;5076577;28;20020;-77
2023/06/15 08:08:45;;;;;;;0.70;0.57;;;;;;;23.41;100.00;97259.59;5111698;28;20543;-76
2023/06/15 08:11:10;;;;;;;5.38;1.05;;;;;;;23.56;100.00;97269.53;5111540;28;20386;-77
2023/06/15 08:13:37;;;;;;;0.28;0.28;;;;;;;23.66;100.00;97267.41;5093627;28;20102;-77
2023/06/15 08:16:05;;;;;;;0.28;0.28;;;;;;;23.69;100.00;97271.66;5093486;28;20035;-76
2023/06/15 08:18:34;;;;;;;0.90;0.90;;;;;;;23.59;100.00;97273.81;5093457;28;20054;-76
2023/06/15 08:21:05;;;;;;;1.40;0.93;;;;;;;23.57;100.00;97281.31;5113331;27;20060;-76
2023/06/15 08:23:30;;;;;;;0.65;0.57;;;;;;;23.65;100.00;97273.06;5114020;27;20083;-76
2023/06/15 08:25:56;;;;;;;1.55;0.63;;;;;;;23.63;100.00;97262.31;5113615;27;20499;-76
2023/06/15 08:28:21;;;;;;;0.45;0.45;;;;;;;23.55;100.00;97267.00;5113505;27;20136;-77
2023/06/15 08:30:47;;;;;;;0.50;0.50;;;;;;;23.68;100.00;97268.09;5130523;27;20068;-76
2023/06/15 08:33:13;;;;;;;0.85;0.63;;;;;;;23.77;100.00;97266.13;5109906;28;20019;-77
2023/06/15 08:35:38;;;;;;;0.60;0.60;;;;;;;23.63;100.00;97269.66;5093411;28;20371;-76
2023/06/15 08:38:04;;;;;;;2.00;1.00;;;;;;;23.74;100.00;97271.97;5111193;28;20027;-75
2023/06/15 08:40:29;;;;;;;0.43;0.43;;;;;;;23.41;100.00;97271.34;5093088;28;20053;-77
2023/06/15 08:42:57;;;;;;;0.90;0.90;;;;;;;23.33;100.00;97301.41;5092978;28;20084;-77
2023/06/15 08:45:23;;;;;;;0.55;0.55;;;;;;;23.25;100.00;97287.84;5098485;27;20037;-78
2023/06/15 08:47:49;;;;;;;0.73;0.68;;;;;;;23.09;100.00;97302.41;5113228;28;20023;-79
2023/06/15 08:50:15;;;;;;;0.75;0.47;;;;;;;23.32;100.00;97298.88;5096051;28;20030;-77
2023/06/15 08:52:43;;;;;;;0.57;0.57;;;;;;;23.42;100.00;97294.91;5113471;28;20506;-77
2023/06/15 08:55:09;;;;;;;0.20;0.20;;;;;;;23.62;100.00;97287.09;5076011;28;20077;-75
2023/06/15 08:57:35;;;;;;;0.93;0.80;;;;;;;23.83;100.00;97287.25;5113966;27;20023;-74
2023/06/15 09:00:10;;;;;;;0.40;0.40;;;;;;;23.56;100.00;97275.00;5117253;27;20030;-77
2023/06/15 09:02:46;;;;;;;0.30;0.30;;;;;;;23.70;100.00;97284.28;5081931;28;20028;-77
2023/06/15 09:05:12;;;;;;;0.60;0.60;;;;;;;23.47;100.00;97291.66;5097193;28;20030;-74
2023/06/15 09:07:38;;;;;;;0.77;0.77;;;;;;;23.13;100.00;97303.75;5097109;28;20407;-75
2023/06/15 09:10:16;;;;;;;3.78;0.82;;;;;;;23.18;100.00;97309.53;5079738;28;20028;-76
2023/06/15 09:12:46;;;;;;;0.30;0.30;;;;;;;23.53;100.00;97312.75;5102580;27;20057;-75
2023/06/15 09:15:29;;;;;;;1.23;0.68;;;;;;;23.66;100.00;97307.53;5116977;27;20019;-75
2023/06/15 09:17:59;;;;;;;0.90;0.75;;;;;;;23.62;100.00;97290.69;5117204;27;20023;-74
2023/06/15 09:20:38;;;;;;;1.08;0.38;;;;;;;23.85;100.00;97306.19;5117048;27;20019;-74
2023/06/15 09:23:05;;;;;;;0.70;0.70;;;;;;;24.00;100.00;97283.31;5116786;27;20095;-77
2023/06/15 09:25:32;;;;;;;0.50;0.50;;;;;;;23.47;100.00;97283.44;5105498;28;20047;-75
2023/06/15 09:28:06;;;;;;;8.02;1.48;;;;;;;23.68;100.00;97295.41;5114805;28;20027;-76
2023/06/15 09:30:39;;;;;;;0.50;0.50;;;;;;;23.97;100.00;97294.63;5134985;27;20451;-76
2023/06/15 09:33:21;;;;;;;2.25;1.02;;;;;;;24.38;100.00;97277.84;5116730;27;20451;-76
2023/06/15 09:36:03;;;;;;;0.52;0.50;;;;;;;24.65;100.00;97268.97;5090226;27;20050;-77
2023/06/15 09:38:45;;;;;;;0.60;0.60;;;;;;;24.92;100.00;97268.31;5099711;27;20403;-77
2023/06/15 09:41:11;;;;;;;1.88;0.80;;;;;;;24.98;100.00;97255.78;5115144;27;20092;-77
2023/06/15 09:43:40;;;;;;;2.17;1.08;;;;;;;24.65;100.00;97258.03;5129222;27;20047;-76
2023/06/15 09:46:11;;;;;;;0.30;0.30;;;;;;;24.73;100.00;97263.44;5100982;27;20026;-76
2023/06/15 09:48:40;;;;;;;1.90;0.77;;;;;;;25.13;100.00;97271.09;5095531;28;20035;-76
2023/06/15 09:51:06;;;;;;;0.45;0.45;;;;;;;25.33;100.00;97263.13;5079247;28;21327;-76
2023/06/15 09:53:31;;;;;;;0.32;0.32;;;;;;;25.84;100.00;97259.25;5096375;28;20030;-75
2023/06/15 09:56:01;;;;;;;3.28;0.85;;;;;;;26.34;100.00;97260.94;5078875;28;20501;-76
2023/06/15 09:58:29;;;;;;;16.65;6.82;;;;;;;26.35;100.00;97250.81;5095853;28;20076;-76
2023/06/15 10:01:02;;;;;;;13.52;6.40;;;;;;;26.61;100.00;97244.66;5095878;28;20055;-75
2023/06/15 10:03:28;;;;;;;16.40;8.07;;;;;;;27.01;100.00;97242.97;5091474;28;20391;-76
2023/06/15 10:06:15;;;;;;;15.65;6.75;;;;;;;26.86;100.00;97235.72;5095730;28;20044;-76
2023/06/15 10:08:41;;;;;;;9.43;6.07;;;;;;;26.78;100.00;97232.28;5114034;28;20034;-75
2023/06/15 10:11:09;;;;;;;9.57;5.97;;;;;;;26.42;100.00;97234.41;5098725;27;20448;-76
2023/06/15 10:14:09;;;;;;;7.72;6.22;;;;;;;25.44;100.00;97218.78;5116441;27;20026;-76
2023/06/15 10:16:36;;;;;;;9.50;6.90;;;;;;;25.99;100.00;97234.50;5116072;27;20501;-74
2023/06/15 10:19:05;;;;;;;11.75;7.05;;;;;;;26.19;100.00;97235.50;5098718;27;20378;-74
2023/06/15 10:21:35;;;;;;;8.57;6.50;;;;;;;26.12;100.00;97231.84;5115874;27;20054;-74
2023/06/15 10:24:04;;;;;;;10.77;6.45;;;;;;;26.55;100.00;97232.56;5116057;27;20493;-75
2023/06/15 10:26:30;;;;;;;10.93;7.00;;;;;;;26.48;100.00;97228.09;5115889;27;20012;-75
2023/06/15 10:29:03;;;;;;;8.55;6.50;;;;;;;25.90;100.00;97216.50;5115600;27;20064;-75
2023/06/15 10:31:40;;;;;;;9.60;6.78;;;;;;;26.31;100.00;97225.69;5116273;27;20046;-75
2023/06/15 10:34:11;;;;;;;12.27;7.65;;;;;;;26.74;100.00;97228.22;5086486;28;20463;-77
2023/06/15 10:36:46;;;;;;;15.90;8.40;;;;;;;27.13;100.00;97217.47;5102387;27;20035;-76
2023/06/15 10:39:11;;;;;;;11.13;6.90;;;;;;;26.93;100.00;97224.75;5110036;27;20027;-75
2023/06/15 10:41:37;;;;;;;7.45;5.93;;;;;;;27.20;100.00;97223.78;5126495;27;20023;-75
2023/06/15 10:44:04;;;;;;;6.05;5.22;;;;;;;27.29;100.00;97197.81;5094945;28;20031;-77
2023/06/15 10:46:31;;;;;;;8.55;5.63;;;;;;;27.13;100.00;97194.63;5086380;27;20027;-77
2023/06/15 10:49:07;;;;;;;7.57;5.88;;;;;;;27.23;100.00;97203.28;5101725;27;20027;-76
2023/06/15 10:51:40;;;;;;;12.13;5.90;;;;;;;27.00;100.00;97195.44;5111782;28;20501;-76
2023/06/15 10:54:26;;;;;;;9.70;6.25;;;;;;;27.07;100.00;97211.94;5077883;28;20036;-76
2023/06/15 10:56:57;;;;;;;7.30;6.15;;;;;;;26.76;100.00;97201.44;5093843;28;20038;-75
2023/06/15 10:59:48;;;;;;;8.70;6.03;;;;;;;27.01;100.00;97208.09;5113123;28;20505;-75
2023/06/15 11:02:28;;;;;;;8.80;6.13;;;;;;;27.26;100.00;97187.25;5111339;27;20042;-75
2023/06/15 11:05:08;;;;;;;7.72;5.68;;;;;;;27.09;100.00;97172.22;5112774;28;20031;-75
2023/06/15 11:07:39;;;;;;;7.43;6.15;;;;;;;27.42;100.00;97180.50;5077819;28;20042;-75
2023/06/15 11:10:14;;;;;;;8.30;5.20;;;;;;;28.00;100.00;97170.59;5112662;28;20077;-75
2023/06/15 11:12:43;;;;;;;7.97;4.93;;;;;;;28.16;100.00;97141.84;5119574;27;20035;-75
2023/06/15 11:15:10;;;;;;;9.85;5.55;;;;;;;28.23;100.00;97149.03;5114823;27;20544;-75
2023/06/15 11:18:00;;;;;;;6.88;6.05;;;;;;;28.01;100.00;97161.31;5114712;27;20061;-75
2023/06/15 11:20:44;;;;;;;10.60;5.82;;;;;;;28.10;100.00;97143.53;5108863;27;20119;-76
2023/06/15 11:23:19;;;;;;;8.60;5.45;;;;;;;27.47;100.00;97130.47;5113775;27;20038;-75
2023/06/15 11:25:44;;;;;;;13.40;5.35;;;;;;;26.84;100.00;97136.25;5115292;27;20470;-75